Mencey Uno — EA4371 — position and weather

sailwx.info

Track history (hours):
 
Tides and Currents Weather Stations Pressure Air Temp Water Temp Dewpoint Dewpoint Depression Visibility Wind Speed Wind Dir Waves Ship Positions

Mencey Uno

Last reported at 2017-Nov-19 09:35 UTC. Time now 2017-Nov-19 10:35 UTC.
Position N 28°08' W 015°26'.

Length 12 m.

Type: Sailing vessel. MMSI: 224137960.

Date/timePositionNaut miles runAvg speedWind from/ knotsBaromVisibWave heightAir tempDewpointWater temp
2017-Nov-19 09:35N 28°08' W 015°26'0 0.0
2017-Nov-19 09:20N 28°08' W 015°26'0 0.0
2017-Nov-19 08:50N 28°08' W 015°26'0 0.0
2017-Nov-19 08:26N 28°08' W 015°26'0 0.0
2017-Nov-19 07:56N 28°08' W 015°26'0 0.0
2017-Nov-19 07:20N 28°08' W 015°26'0 0.0
2017-Nov-19 06:56N 28°08' W 015°26'0 0.0
2017-Nov-19 06:26N 28°08' W 015°26'0 0.0
2017-Nov-19 05:59N 28°08' W 015°26'0 0.0
2017-Nov-19 05:29N 28°08' W 015°26'0 0.0
2017-Nov-19 04:56N 28°08' W 015°26'0 0.0
2017-Nov-19 04:29N 28°08' W 015°26'0 0.0
2017-Nov-19 03:56N 28°08' W 015°26'0 0.0
2017-Nov-19 03:26N 28°08' W 015°26'0 0.0
2017-Nov-19 02:59N 28°08' W 015°26'0 0.0
2017-Nov-19 02:29N 28°08' W 015°26'0 0.0
2017-Nov-19 01:59N 28°08' W 015°26'0 0.0
2017-Nov-19 01:17N 28°08' W 015°26'0 0.0
2017-Nov-19 00:47N 28°08' W 015°26'0 0.0
2017-Nov-19 00:29N 28°08' W 015°26'0 0.0
2017-Nov-18 23:50N 28°08' W 015°26'0 0.0
2017-Nov-18 23:20N 28°08' W 015°26'0 0.0
2017-Nov-18 22:50N 28°08' W 015°26'0 0.0
2017-Nov-18 22:23N 28°08' W 015°26'0 0.0
2017-Nov-18 21:47N 28°08' W 015°26'0 0.0
2017-Nov-18 21:08N 28°08' W 015°26'0 0.0
2017-Nov-18 20:50N 28°08' W 015°26'0 0.0
2017-Nov-18 20:23N 28°08' W 015°26'0 0.0
2017-Nov-18 19:56N 28°08' W 015°26'0 0.0
2017-Nov-18 19:26N 28°08' W 015°26'0 0.0
2017-Nov-18 18:56N 28°08' W 015°26'2 4.4
2017-Nov-18 18:28N 28°06' W 015°24'3 6.8
2017-Nov-18 17:58N 28°03' W 015°23'4 0.8
2017-Nov-18 12:42N 27°59' W 015°21'1 6.5
2017-Nov-18 12:30N 28°00' W 015°22'3 6.2
2017-Nov-18 12:00N 28°03' W 015°23'3 5.3
2017-Nov-18 11:31N 28°06' W 015°24'3 4.9
2017-Nov-18 11:00N 28°08' W 015°25'0 0.3
2017-Nov-18 10:26N 28°08' W 015°26'0 0.0
2017-Nov-18 09:56N 28°08' W 015°26'0 0.0
2017-Nov-18 09:11N 28°08' W 015°26'0 0.0
2017-Nov-18 08:59N 28°08' W 015°26'0 0.0
2017-Nov-18 08:26N 28°08' W 015°26'0 0.0
2017-Nov-18 07:59N 28°08' W 015°26'0 0.0
2017-Nov-18 07:29N 28°08' W 015°26'0 0.0
2017-Nov-18 06:59N 28°08' W 015°26'0 0.0
2017-Nov-18 06:29N 28°08' W 015°26'0 0.0
2017-Nov-18 05:59N 28°08' W 015°26'0 0.0
2017-Nov-18 05:29N 28°08' W 015°26'0 0.0
2017-Nov-18 04:50N 28°08' W 015°26'0 0.0
2017-Nov-18 04:20N 28°08' W 015°26'0 0.0
2017-Nov-18 03:50N 28°08' W 015°26'0 0.0
2017-Nov-18 03:23N 28°08' W 015°26'0 0.0
2017-Nov-18 02:53N 28°08' W 015°26'0 0.0
2017-Nov-18 02:05N 28°08' W 015°26'0 0.0
2017-Nov-18 01:53N 28°08' W 015°26'0 0.0
2017-Nov-18 01:20N 28°08' W 015°26'0 0.0
2017-Nov-18 00:53N 28°08' W 015°26'0 0.0
2017-Nov-18 00:26N 28°08' W 015°26'0 0.0
2017-Nov-17 23:56N 28°08' W 015°26'0 0.0
2017-Nov-17 23:26N 28°08' W 015°26'0 0.0
2017-Nov-17 22:56N 28°08' W 015°26'0 0.0
2017-Nov-17 22:29N 28°08' W 015°26'0 0.0
2017-Nov-17 21:44N 28°08' W 015°26'0 0.0
2017-Nov-17 21:26N 28°08' W 015°26'0 0.0
2017-Nov-17 20:59N 28°08' W 015°26'0 0.0
2017-Nov-17 20:29N 28°08' W 015°26'0 0.0
2017-Nov-17 19:59N 28°08' W 015°26'0 0.0
2017-Nov-17 19:29N 28°08' W 015°26'0 0.0
2017-Nov-17 18:47N 28°08' W 015°26'0 0.0
2017-Nov-17 18:29N 28°08' W 015°26'0 0.0
2017-Nov-17 17:59N 28°08' W 015°26'0 0.0
2017-Nov-17 17:29N 28°08' W 015°26'0 0.0
2017-Nov-17 16:44N 28°08' W 015°26'0 0.0
2017-Nov-17 16:29N 28°08' W 015°26'0 0.0
2017-Nov-17 15:50N 28°08' W 015°26'0 0.0
2017-Nov-17 15:20N 28°08' W 015°26'0 0.0
2017-Nov-17 14:53N 28°08' W 015°26'0 0.0
2017-Nov-17 14:23N 28°08' W 015°26'0 0.0
2017-Nov-17 13:53N 28°08' W 015°26'0 0.0
2017-Nov-17 13:23N 28°08' W 015°26'0 0.0
2017-Nov-17 12:53N 28°08' W 015°26'0 0.0
2017-Nov-17 12:20N 28°08' W 015°26'0 0.0
2017-Nov-17 11:56N 28°08' W 015°26'0 0.0
2017-Nov-17 11:26N 28°08' W 015°26'0 0.0
2017-Nov-17 10:53N 28°08' W 015°26'0 0.0
2017-Nov-17 10:26N 28°08' W 015°26'0 0.0
2017-Nov-17 09:56N 28°08' W 015°26'0 0.0
2017-Nov-17 09:29N 28°08' W 015°26'0 0.0
2017-Nov-17 08:56N 28°08' W 015°26'0 0.0
2017-Nov-17 08:29N 28°08' W 015°26'0 0.0
2017-Nov-17 07:59N 28°08' W 015°26'0 0.0
2017-Nov-17 07:29N 28°08' W 015°26'0 0.0
2017-Nov-17 06:59N 28°08' W 015°26'0 0.0
2017-Nov-17 06:29N 28°08' W 015°26'0 0.0
2017-Nov-17 05:59N 28°08' W 015°26'0 0.0
2017-Nov-17 05:29N 28°08' W 015°26'0 0.0
2017-Nov-17 04:59N 28°08' W 015°26'0 0.0
2017-Nov-17 04:29N 28°08' W 015°26'0 0.0
2017-Nov-17 03:59N 28°08' W 015°26'0 0.0
2017-Nov-17 03:29N 28°08' W 015°26'0 0.0
2017-Nov-17 02:50N 28°08' W 015°26'0 0.0
2017-Nov-17 02:17N 28°08' W 015°26'0 0.0
2017-Nov-17 01:53N 28°08' W 015°26'0 0.0
2017-Nov-17 01:23N 28°08' W 015°26'0 0.0
2017-Nov-17 00:53N 28°08' W 015°26'0 0.0
2017-Nov-17 00:23N 28°08' W 015°26'0 0.0
2017-Nov-16 23:53N 28°08' W 015°26'0 0.0
2017-Nov-16 23:26N 28°08' W 015°26'0 0.0
2017-Nov-16 22:56N 28°08' W 015°26'0 0.0
2017-Nov-16 22:26N 28°08' W 015°26'0 0.0
2017-Nov-16 21:56N 28°08' W 015°26'0 0.0
2017-Nov-16 21:26N 28°08' W 015°26'0 0.0
2017-Nov-16 20:59N 28°08' W 015°26'0 0.0
2017-Nov-16 20:29N 28°08' W 015°26'0 0.0
2017-Nov-16 19:59N 28°08' W 015°26'0 0.0
2017-Nov-16 19:11N 28°08' W 015°26'0 0.0
2017-Nov-16 18:56N 28°08' W 015°26'0 0.0
2017-Nov-16 18:30N 28°08' W 015°26'0 0.0
2017-Nov-16 17:59N 28°08' W 015°26'0 0.0
2017-Nov-16 17:17N 28°08' W 015°26'0 0.0
2017-Nov-16 17:00N 28°08' W 015°26'0 0.0
2017-Nov-16 16:29N 28°08' W 015°26'0 0.0
2017-Nov-16 16:00N 28°08' W 015°26'0 0.0
2017-Nov-16 15:21N 28°08' W 015°26'0 0.0
2017-Nov-16 14:51N 28°08' W 015°26'0 0.0
2017-Nov-16 14:21N 28°08' W 015°26'0 0.0
2017-Nov-16 13:54N 28°08' W 015°26'0 0.0
2017-Nov-16 13:24N 28°08' W 015°26'0 0.0
2017-Nov-16 12:51N 28°08' W 015°26'0 0.0
2017-Nov-16 12:21N 28°08' W 015°26'0 0.0
2017-Nov-16 11:51N 28°08' W 015°26'0 0.0
2017-Nov-16 11:24N 28°08' W 015°26'0 0.0
2017-Nov-16 10:57N 28°08' W 015°26'0 0.0
2017-Nov-16 10:27N 28°08' W 015°26'0 0.0
2017-Nov-16 09:57N 28°08' W 015°26'0 0.0
2017-Nov-16 09:27N 28°08' W 015°26'0 0.0
2017-Nov-16 09:00N 28°08' W 015°26'0 0.0
2017-Nov-16 08:27N 28°08' W 015°26'0 0.0
2017-Nov-16 07:45N 28°08' W 015°26'0 0.0
2017-Nov-16 07:30N 28°08' W 015°26'0 0.0
2017-Nov-16 06:57N 28°08' W 015°26'0 0.0
2017-Nov-16 06:30N 28°08' W 015°26'0 0.0
2017-Nov-16 06:00N 28°08' W 015°26'0 0.0
2017-Nov-16 05:30N 28°08' W 015°26'0 0.0
2017-Nov-16 05:00N 28°08' W 015°26'0 0.0
2017-Nov-16 04:30N 28°08' W 015°26'0 0.0
2017-Nov-16 04:00N 28°08' W 015°26'0 0.0
2017-Nov-16 03:30N 28°08' W 015°26'0 0.0
2017-Nov-16 03:00N 28°08' W 015°26'0 0.0
2017-Nov-16 02:06N 28°08' W 015°26'0 0.0
2017-Nov-16 01:51N 28°08' W 015°26'0 0.0
2017-Nov-16 01:24N 28°08' W 015°26'0 0.0
2017-Nov-16 00:54N 28°08' W 015°26'0 0.0
2017-Nov-15 23:36N 28°08' W 015°26'0 0.0
2017-Nov-15 23:06N 28°08' W 015°26'0 0.0
2017-Nov-15 22:57N 28°08' W 015°26'0 0.0
2017-Nov-15 22:27N 28°08' W 015°26'0 0.0
2017-Nov-15 21:54N 28°08' W 015°26'0 0.0
2017-Nov-15 21:27N 28°08' W 015°26'0 0.0
2017-Nov-15 20:54N 28°08' W 015°26'0 0.0
2017-Nov-15 20:30N 28°08' W 015°26'0 0.0
2017-Nov-15 19:57N 28°08' W 015°26'0 0.0
2017-Nov-15 19:27N 28°08' W 015°26'0 0.0
2017-Nov-15 19:00N 28°08' W 015°26'0 0.0
2017-Nov-15 18:27N 28°08' W 015°26'0 0.0
2017-Nov-15 17:57N 28°08' W 015°26'0 0.0
2017-Nov-15 17:30N 28°08' W 015°26'0 0.0
2017-Nov-15 16:53N 28°08' W 015°26'0 0.0
2017-Nov-15 16:23N 28°08' W 015°26'0 0.0
2017-Nov-15 15:50N 28°08' W 015°26'0 0.0
2017-Nov-15 15:26N 28°08' W 015°26'0 0.0
2017-Nov-15 14:56N 28°08' W 015°26'0 0.0
2017-Nov-15 14:26N 28°08' W 015°26'0 0.0
2017-Nov-15 13:53N 28°08' W 015°26'0 0.0
2017-Nov-15 13:23N 28°08' W 015°26'0 0.0
2017-Nov-15 12:59N 28°08' W 015°26'0 0.0
2017-Nov-15 12:29N 28°08' W 015°26'0 0.0
2017-Nov-15 11:59N 28°08' W 015°26'0 0.0
2017-Nov-15 11:29N 28°08' W 015°26'0 0.0
2017-Nov-15 10:59N 28°08' W 015°26'0 0.0
2017-Nov-15 10:29N 28°08' W 015°26'0 0.0
2017-Nov-15 09:59N 28°08' W 015°26'0 0.0
2017-Nov-15 09:14N 28°08' W 015°26'0 0.0
2017-Nov-15 08:59N 28°08' W 015°26'0 0.0
2017-Nov-15 08:29N 28°08' W 015°26'0 0.0
2017-Nov-15 07:59N 28°08' W 015°26'0 0.0
2017-Nov-15 07:29N 28°08' W 015°26'0 0.0
2017-Nov-15 06:50N 28°08' W 015°26'0 0.0
2017-Nov-15 06:17N 28°08' W 015°26'0 0.0
2017-Nov-15 05:50N 28°08' W 015°26'0 0.0
2017-Nov-15 05:20N 28°08' W 015°26'0 0.0
2017-Nov-15 04:53N 28°08' W 015°26'0 0.0
2017-Nov-15 04:23N 28°08' W 015°26'0 0.0
2017-Nov-15 03:53N 28°08' W 015°26'0 0.0
2017-Nov-15 03:20N 28°08' W 015°26'0 0.0
2017-Nov-15 02:56N 28°08' W 015°26'0 0.0
2017-Nov-15 02:23N 28°08' W 015°26'0 0.0
2017-Nov-15 01:53N 28°08' W 015°26'0 0.0
2017-Nov-15 00:44N 28°08' W 015°26'0 0.0
2017-Nov-15 00:29N 28°08' W 015°26'0 0.0
2017-Nov-14 23:59N 28°08' W 015°26'0 0.0
2017-Nov-14 23:29N 28°08' W 015°26'0 0.0
2017-Nov-14 22:59N 28°08' W 015°26'0 0.0
2017-Nov-14 22:26N 28°08' W 015°26'0 0.0
2017-Nov-14 21:59N 28°08' W 015°26'0 0.0
2017-Nov-14 21:26N 28°08' W 015°26'0 0.0
2017-Nov-14 20:59N 28°08' W 015°26'0 0.0
2017-Nov-14 20:29N 28°08' W 015°26'0 0.0
2017-Nov-14 19:59N 28°08' W 015°26'0 0.0
2017-Nov-14 19:29N 28°08' W 015°26'0 0.0
2017-Nov-14 18:59N 28°08' W 015°26'0 0.0
2017-Nov-14 18:20N 28°08' W 015°26'0 0.0
2017-Nov-14 17:50N 28°08' W 015°26'0 0.0
2017-Nov-14 17:23N 28°08' W 015°26'0 0.0
2017-Nov-14 16:53N 28°08' W 015°26'0 0.0
2017-Nov-14 16:20N 28°08' W 015°26'0 0.0
2017-Nov-14 15:53N 28°08' W 015°26'0 0.0
2017-Nov-14 15:23N 28°08' W 015°26'0 0.0
2017-Nov-14 14:56N 28°08' W 015°26'0 0.0
2017-Nov-14 14:26N 28°08' W 015°26'0 0.0
2017-Nov-14 12:53N 28°08' W 015°26'0 0.0
2017-Nov-14 12:29N 28°08' W 015°26'0 0.0
2017-Nov-14 11:44N 28°08' W 015°26'0 0.0
2017-Nov-14 11:14N 28°08' W 015°26'0 0.0
2017-Nov-14 10:59N 28°08' W 015°26'0 0.0
2017-Nov-14 10:29N 28°08' W 015°26'0 0.0
2017-Nov-14 09:59N 28°08' W 015°26'0 0.0
2017-Nov-14 09:26N 28°08' W 015°26'0 0.0
2017-Nov-14 08:59N 28°08' W 015°26'0 0.0
2017-Nov-14 08:29N 28°08' W 015°26'0 0.0
2017-Nov-14 07:59N 28°08' W 015°26'0 0.0
2017-Nov-14 07:17N 28°08' W 015°26'0 0.0
2017-Nov-14 06:59N 28°08' W 015°26'0 0.0
2017-Nov-14 06:05N 28°08' W 015°26'0 0.0
2017-Nov-14 05:50N 28°08' W 015°26'0 0.0
2017-Nov-14 05:20N 28°08' W 015°26'0 0.0
2017-Nov-14 04:53N 28°08' W 015°26'0 0.0
2017-Nov-14 04:17N 28°08' W 015°26'0 0.0
2017-Nov-14 03:53N 28°08' W 015°26'0 0.0
2017-Nov-14 03:23N 28°08' W 015°26'0 0.0
2017-Nov-14 02:41N 28°08' W 015°26'0 0.0
2017-Nov-14 02:23N 28°08' W 015°26'0 0.0
2017-Nov-14 01:53N 28°08' W 015°26'0 0.0
2017-Nov-14 01:11N 28°08' W 015°26'0 0.0
2017-Nov-14 00:53N 28°08' W 015°26'0 0.0
2017-Nov-14 00:26N 28°08' W 015°26'0 0.0
2017-Nov-13 23:53N 28°08' W 015°26'0 0.0
2017-Nov-13 23:29N 28°08' W 015°26'0 0.0
2017-Nov-13 22:59N 28°08' W 015°26'0 0.0
2017-Nov-13 22:14N 28°08' W 015°26'0 0.0
2017-Nov-13 21:41N 28°08' W 015°26'0 0.0
2017-Nov-13 01:53N 28°08' W 015°26'0 0.0
2017-Nov-13 01:20N 28°08' W 015°26'0 0.0
2017-Nov-13 00:56N 28°08' W 015°26'0 0.0
2017-Nov-13 00:23N 28°08' W 015°26'0 0.0
2017-Nov-12 23:56N 28°08' W 015°26'0 0.0
2017-Nov-12 23:23N 28°08' W 015°26'0 0.0
2017-Nov-12 22:59N 28°08' W 015°26'0 0.0
2017-Nov-12 22:14N 28°08' W 015°26'0 0.0
2017-Nov-12 21:44N 28°08' W 015°26'0 0.0
2017-Nov-12 21:29N 28°08' W 015°26'0 0.0
2017-Nov-12 20:59N 28°08' W 015°26'0 0.0
2017-Nov-12 20:17N 28°08' W 015°26'0 0.0
2017-Nov-12 18:05N 28°08' W 015°26'0 0.1
2017-Nov-12 17:59N 28°08' W 015°26'0 0.0
2017-Nov-12 16:17N 28°08' W 015°26'0 0.0
2017-Nov-12 15:50N 28°08' W 015°26'0 0.0
2017-Nov-12 15:23N 28°08' W 015°26'0 0.0
2017-Nov-12 14:53N 28°08' W 015°26'0 0.0
2017-Nov-12 14:23N 28°08' W 015°26'0 0.0
2017-Nov-12 13:53N 28°08' W 015°26'0 0.0
2017-Nov-12 13:23N 28°08' W 015°26'0 0.0
2017-Nov-12 12:53N 28°08' W 015°26'0 0.0
2017-Nov-12 12:08N 28°08' W 015°26'0 0.0
2017-Nov-12 11:53N 28°08' W 015°26'0 0.0
2017-Nov-12 11:23N 28°08' W 015°26'0 0.0
2017-Nov-12 10:56N 28°08' W 015°26'0 0.0
2017-Nov-12 09:11N 28°08' W 015°26'0 0.0
2017-Nov-12 08:59N 28°08' W 015°26'0 0.0
2017-Nov-12 08:29N 28°08' W 015°26'0 0.0
2017-Nov-12 07:59N 28°08' W 015°26'0 0.0
2017-Nov-12 07:17N 28°08' W 015°26'0 0.0
2017-Nov-12 06:59N 28°08' W 015°26'0 0.0
2017-Nov-12 06:20N 28°08' W 015°26'0 0.0
2017-Nov-12 05:47N 28°08' W 015°26'0 0.0
2017-Nov-12 05:29N 28°08' W 015°26'0 0.0
2017-Nov-12 04:47N 28°08' W 015°26'0 0.0
2017-Nov-12 04:20N 28°08' W 015°26'0 0.0
2017-Nov-12 03:47N 28°08' W 015°26'0 0.0
2017-Nov-12 03:23N 28°08' W 015°26'0 0.0
2017-Nov-12 02:53N 28°08' W 015°26'0 0.0
2017-Nov-12 02:20N 28°08' W 015°26'0 0.0
2017-Nov-12 01:53N 28°08' W 015°26'0 0.0
2017-Nov-12 01:23N 28°08' W 015°26'0 0.0
2017-Nov-12 00:50N 28°08' W 015°26'0 0.0
2017-Nov-12 00:26N 28°08' W 015°26'0 0.0
2017-Nov-11 23:56N 28°08' W 015°26'0 0.0
2017-Nov-11 23:26N 28°08' W 015°26'0 0.0
2017-Nov-11 22:53N 28°08' W 015°26'0 0.0
2017-Nov-11 22:29N 28°08' W 015°26'0 0.0
2017-Nov-11 22:00N 28°08' W 015°26'0 0.0
2017-Nov-11 21:29N 28°08' W 015°26'0 0.0
2017-Nov-11 20:59N 28°08' W 015°26'0 0.0
2017-Nov-11 20:26N 28°08' W 015°26'0 0.0
2017-Nov-11 20:00N 28°08' W 015°26'0 0.0
2017-Nov-11 19:29N 28°08' W 015°26'0 0.0
2017-Nov-11 19:00N 28°08' W 015°26'0 0.0
2017-Nov-11 18:29N 28°08' W 015°26'0 0.0
2017-Nov-11 17:59N 28°08' W 015°26'0 0.0
2017-Nov-11 17:30N 28°08' W 015°26'0 0.0
2017-Nov-11 16:18N 28°08' W 015°26'0 0.0
2017-Nov-11 15:51N 28°08' W 015°26'0 0.0
2017-Nov-11 15:21N 28°08' W 015°26'0 0.0
2017-Nov-11 14:54N 28°08' W 015°26'0 0.0
2017-Nov-11 13:54N 28°08' W 015°26'0 0.0
2017-Nov-11 13:24N 28°08' W 015°26'0 0.0
2017-Nov-11 12:54N 28°08' W 015°26'0 0.0
2017-Nov-11 12:27N 28°08' W 015°26'0 0.0
2017-Nov-11 11:57N 28°08' W 015°26'0 0.0
2017-Nov-11 11:12N 28°08' W 015°26'0 0.0
2017-Nov-11 10:42N 28°08' W 015°26'0 0.0
2017-Nov-11 10:15N 28°08' W 015°26'0 0.0
2017-Nov-11 09:42N 28°08' W 015°26'0 0.0
2017-Nov-11 09:15N 28°08' W 015°26'0 0.0
2017-Nov-11 08:42N 28°08' W 015°26'0 0.0
2017-Nov-11 08:30N 28°08' W 015°26'0 0.0
2017-Nov-11 08:00N 28°08' W 015°26'0 0.0
2017-Nov-11 07:30N 28°08' W 015°26'0 0.0
2017-Nov-11 07:00N 28°08' W 015°26'0 0.0
2017-Nov-11 06:30N 28°08' W 015°26'0 0.0
2017-Nov-11 06:00N 28°08' W 015°26'0 0.0
2017-Nov-11 05:18N 28°08' W 015°26'0 0.0
2017-Nov-11 05:00N 28°08' W 015°26'0 0.0
2017-Nov-11 04:30N 28°08' W 015°26'0 0.0
2017-Nov-11 03:51N 28°08' W 015°26'0 0.0
2017-Nov-11 03:21N 28°08' W 015°26'0 0.0
2017-Nov-11 02:54N 28°08' W 015°26'0 0.0
2017-Nov-11 02:24N 28°08' W 015°26'0 0.0
2017-Nov-11 01:54N 28°08' W 015°26'0 0.0
2017-Nov-11 01:24N 28°08' W 015°26'0 0.0
2017-Nov-11 00:36N 28°08' W 015°26'0 0.0
2017-Nov-11 00:27N 28°08' W 015°26'0 0.0
2017-Nov-10 23:57N 28°08' W 015°26'0 0.0
2017-Nov-10 23:21N 28°08' W 015°26'0 0.0
2017-Nov-10 22:57N 28°08' W 015°26'0 0.0
2017-Nov-10 22:27N 28°08' W 015°26'0 0.0
2017-Nov-10 22:00N 28°08' W 015°26'0 0.0
2017-Nov-10 21:30N 28°08' W 015°26'0 0.0
2017-Nov-10 21:00N 28°08' W 015°26'0 0.0
2017-Nov-10 20:30N 28°08' W 015°26'0 0.0
2017-Nov-10 19:57N 28°08' W 015°26'0 0.0
2017-Nov-10 19:30N 28°08' W 015°26'0 0.0
2017-Nov-10 19:00N 28°08' W 015°26'0 0.0
2017-Nov-10 18:30N 28°08' W 015°26'0 0.0
2017-Nov-10 18:00N 28°08' W 015°26'0 0.0
2017-Nov-10 17:30N 28°08' W 015°26'0 0.0
2017-Nov-10 17:00N 28°08' W 015°26'0 0.0
2017-Nov-10 16:30N 28°08' W 015°26'0 0.0
2017-Nov-10 15:48N 28°08' W 015°26'0 0.0
2017-Nov-10 15:21N 28°08' W 015°26'0 0.0
2017-Nov-10 14:51N 28°08' W 015°26'0 0.0
2017-Nov-10 14:24N 28°08' W 015°26'0 0.0
2017-Nov-10 13:54N 28°08' W 015°26'0 0.0
2017-Nov-10 13:09N 28°08' W 015°26'0 0.0
2017-Nov-10 12:54N 28°08' W 015°26'0 0.0
2017-Nov-10 12:27N 28°08' W 015°26'0 0.0
2017-Nov-10 11:57N 28°08' W 015°26'0 0.0
2017-Nov-10 11:12N 28°08' W 015°26'0 0.0
2017-Nov-10 10:57N 28°08' W 015°26'0 0.0
2017-Nov-10 10:24N 28°08' W 015°26'0 0.0
2017-Nov-10 09:57N 28°08' W 015°26'0 0.0
2017-Nov-10 09:30N 28°08' W 015°26'0 0.0
2017-Nov-10 09:00N 28°08' W 015°26'0 0.0
2017-Nov-10 08:30N 28°08' W 015°26'0 0.0
2017-Nov-10 08:00N 28°08' W 015°26'0 0.0
2017-Nov-10 07:30N 28°08' W 015°26'0 0.0
2017-Nov-10 06:57N 28°08' W 015°26'0 0.0
2017-Nov-10 06:30N 28°08' W 015°26'0 0.0
2017-Nov-10 06:00N 28°08' W 015°26'0 0.0
2017-Nov-10 05:18N 28°08' W 015°26'0 0.0
2017-Nov-10 04:48N 28°08' W 015°26'0 0.0
2017-Nov-10 04:21N 28°08' W 015°26'0 0.0
2017-Nov-10 03:36N 28°08' W 015°26'0 0.0
2017-Nov-10 03:21N 28°08' W 015°26'0 0.0
2017-Nov-10 02:48N 28°08' W 015°26'0 0.0
2017-Nov-10 02:21N 28°08' W 015°26'0 0.0
2017-Nov-10 01:54N 28°08' W 015°26'0 0.0
2017-Nov-10 01:24N 28°08' W 015°26'0 0.0
2017-Nov-10 00:51N 28°08' W 015°26'0 0.0
2017-Nov-10 00:24N 28°08' W 015°26'0 0.0
2017-Nov-09 23:54N 28°08' W 015°26'0 0.0
2017-Nov-09 23:23N 28°08' W 015°26'0 0.0
2017-Nov-09 22:53N 28°08' W 015°26'0 0.0
2017-Nov-09 22:05N 28°08' W 015°26'0 0.0
2017-Nov-09 21:56N 28°08' W 015°26'0 0.0
2017-Nov-09 21:26N 28°08' W 015°26'0 0.0
2017-Nov-09 20:50N 28°08' W 015°26'0 0.0
2017-Nov-09 20:26N 28°08' W 015°26'0 0.0
2017-Nov-09 19:56N 28°08' W 015°26'0 0.0
2017-Nov-09 19:26N 28°08' W 015°26'0 0.0
2017-Nov-09 18:59N 28°08' W 015°26'0 0.0
2017-Nov-09 18:26N 28°08' W 015°26'0 0.0
2017-Nov-09 17:59N 28°08' W 015°26'0 0.0
2017-Nov-09 17:29N 28°08' W 015°26'0 0.0
2017-Nov-09 16:59N 28°08' W 015°26'0 0.0
2017-Nov-09 16:29N 28°08' W 015°26'0 0.0
2017-Nov-09 15:59N 28°08' W 015°26'0 0.0
2017-Nov-09 15:29N 28°08' W 015°26'0 0.0
2017-Nov-09 14:59N 28°08' W 015°26'0 0.0
2017-Nov-09 14:17N 28°08' W 015°26'0 0.0
2017-Nov-09 13:59N 28°08' W 015°26'0 0.0
2017-Nov-09 13:29N 28°08' W 015°26'0 0.0
2017-Nov-09 12:50N 28°08' W 015°26'0 0.0
2017-Nov-09 12:17N 28°08' W 015°26'0 0.0
2017-Nov-09 11:50N 28°08' W 015°26'0 0.0
2017-Nov-09 11:20N 28°08' W 015°26'0 0.0
2017-Nov-09 10:50N 28°08' W 015°26'0 0.0
2017-Nov-09 10:23N 28°08' W 015°26'0 0.0
2017-Nov-09 09:53N 28°08' W 015°26'  
Track history (hours):
 
Tides and Currents Weather Stations Pressure Air Temp Water Temp Dewpoint Dewpoint Depression Visibility Wind Speed Wind Dir Waves Ship Positions

Mencey Uno

Last reported at 2017-Nov-19 09:35 UTC. Time now 2017-Nov-19 10:35 UTC.
Position N 28°08' W 015°26'.

Length 12 m.

Type: Sailing vessel. MMSI: 224137960.

Date/timePositionNaut miles runAvg speedWind from/ knotsBaromVisibWave heightAir tempDewpointWater temp
2017-Nov-19 09:35N 28°08' W 015°26'0 0.0
2017-Nov-19 09:20N 28°08' W 015°26'0 0.0
2017-Nov-19 08:50N 28°08' W 015°26'0 0.0
2017-Nov-19 08:26N 28°08' W 015°26'0 0.0
2017-Nov-19 07:56N 28°08' W 015°26'0 0.0
2017-Nov-19 07:20N 28°08' W 015°26'0 0.0
2017-Nov-19 06:56N 28°08' W 015°26'0 0.0
2017-Nov-19 06:26N 28°08' W 015°26'0 0.0
2017-Nov-19 05:59N 28°08' W 015°26'0 0.0
2017-Nov-19 05:29N 28°08' W 015°26'0 0.0
2017-Nov-19 04:56N 28°08' W 015°26'0 0.0
2017-Nov-19 04:29N 28°08' W 015°26'0 0.0
2017-Nov-19 03:56N 28°08' W 015°26'0 0.0
2017-Nov-19 03:26N 28°08' W 015°26'0 0.0
2017-Nov-19 02:59N 28°08' W 015°26'0 0.0
2017-Nov-19 02:29N 28°08' W 015°26'0 0.0
2017-Nov-19 01:59N 28°08' W 015°26'0 0.0
2017-Nov-19 01:17N 28°08' W 015°26'0 0.0
2017-Nov-19 00:47N 28°08' W 015°26'0 0.0
2017-Nov-19 00:29N 28°08' W 015°26'0 0.0
2017-Nov-18 23:50N 28°08' W 015°26'0 0.0
2017-Nov-18 23:20N 28°08' W 015°26'0 0.0
2017-Nov-18 22:50N 28°08' W 015°26'0 0.0
2017-Nov-18 22:23N 28°08' W 015°26'0 0.0
2017-Nov-18 21:47N 28°08' W 015°26'0 0.0
2017-Nov-18 21:08N 28°08' W 015°26'0 0.0
2017-Nov-18 20:50N 28°08' W 015°26'0 0.0
2017-Nov-18 20:23N 28°08' W 015°26'0 0.0
2017-Nov-18 19:56N 28°08' W 015°26'0 0.0
2017-Nov-18 19:26N 28°08' W 015°26'0 0.0
2017-Nov-18 18:56N 28°08' W 015°26'2 4.4
2017-Nov-18 18:28N 28°06' W 015°24'3 6.8
2017-Nov-18 17:58N 28°03' W 015°23'4 0.8
2017-Nov-18 12:42N 27°59' W 015°21'1 6.5
2017-Nov-18 12:30N 28°00' W 015°22'3 6.2
2017-Nov-18 12:00N 28°03' W 015°23'3 5.3
2017-Nov-18 11:31N 28°06' W 015°24'3 4.9
2017-Nov-18 11:00N 28°08' W 015°25'0 0.3
2017-Nov-18 10:26N 28°08' W 015°26'0 0.0
2017-Nov-18 09:56N 28°08' W 015°26'0 0.0
2017-Nov-18 09:11N 28°08' W 015°26'0 0.0
2017-Nov-18 08:59N 28°08' W 015°26'0 0.0
2017-Nov-18 08:26N 28°08' W 015°26'0 0.0
2017-Nov-18 07:59N 28°08' W 015°26'0 0.0
2017-Nov-18 07:29N 28°08' W 015°26'0 0.0
2017-Nov-18 06:59N 28°08' W 015°26'0 0.0
2017-Nov-18 06:29N 28°08' W 015°26'0 0.0
2017-Nov-18 05:59N 28°08' W 015°26'0 0.0
2017-Nov-18 05:29N 28°08' W 015°26'0 0.0
2017-Nov-18 04:50N 28°08' W 015°26'0 0.0
2017-Nov-18 04:20N 28°08' W 015°26'0 0.0
2017-Nov-18 03:50N 28°08' W 015°26'0 0.0
2017-Nov-18 03:23N 28°08' W 015°26'0 0.0
2017-Nov-18 02:53N 28°08' W 015°26'0 0.0
2017-Nov-18 02:05N 28°08' W 015°26'0 0.0
2017-Nov-18 01:53N 28°08' W 015°26'0 0.0
2017-Nov-18 01:20N 28°08' W 015°26'0 0.0
2017-Nov-18 00:53N 28°08' W 015°26'0 0.0
2017-Nov-18 00:26N 28°08' W 015°26'0 0.0
2017-Nov-17 23:56N 28°08' W 015°26'0 0.0
2017-Nov-17 23:26N 28°08' W 015°26'0 0.0
2017-Nov-17 22:56N 28°08' W 015°26'0 0.0
2017-Nov-17 22:29N 28°08' W 015°26'0 0.0
2017-Nov-17 21:44N 28°08' W 015°26'0 0.0
2017-Nov-17 21:26N 28°08' W 015°26'0 0.0
2017-Nov-17 20:59N 28°08' W 015°26'0 0.0
2017-Nov-17 20:29N 28°08' W 015°26'0 0.0
2017-Nov-17 19:59N 28°08' W 015°26'0 0.0
2017-Nov-17 19:29N 28°08' W 015°26'0 0.0
2017-Nov-17 18:47N 28°08' W 015°26'0 0.0
2017-Nov-17 18:29N 28°08' W 015°26'0 0.0
2017-Nov-17 17:59N 28°08' W 015°26'0 0.0
2017-Nov-17 17:29N 28°08' W 015°26'0 0.0
2017-Nov-17 16:44N 28°08' W 015°26'0 0.0
2017-Nov-17 16:29N 28°08' W 015°26'0 0.0
2017-Nov-17 15:50N 28°08' W 015°26'0 0.0
2017-Nov-17 15:20N 28°08' W 015°26'0 0.0
2017-Nov-17 14:53N 28°08' W 015°26'0 0.0
2017-Nov-17 14:23N 28°08' W 015°26'0 0.0
2017-Nov-17 13:53N 28°08' W 015°26'0 0.0
2017-Nov-17 13:23N 28°08' W 015°26'0 0.0
2017-Nov-17 12:53N 28°08' W 015°26'0 0.0
2017-Nov-17 12:20N 28°08' W 015°26'0 0.0
2017-Nov-17 11:56N 28°08' W 015°26'0 0.0
2017-Nov-17 11:26N 28°08' W 015°26'0 0.0
2017-Nov-17 10:53N 28°08' W 015°26'0 0.0
2017-Nov-17 10:26N 28°08' W 015°26'0 0.0
2017-Nov-17 09:56N 28°08' W 015°26'0 0.0
2017-Nov-17 09:29N 28°08' W 015°26'0 0.0
2017-Nov-17 08:56N 28°08' W 015°26'0 0.0
2017-Nov-17 08:29N 28°08' W 015°26'0 0.0
2017-Nov-17 07:59N 28°08' W 015°26'0 0.0
2017-Nov-17 07:29N 28°08' W 015°26'0 0.0
2017-Nov-17 06:59N 28°08' W 015°26'0 0.0
2017-Nov-17 06:29N 28°08' W 015°26'0 0.0
2017-Nov-17 05:59N 28°08' W 015°26'0 0.0
2017-Nov-17 05:29N 28°08' W 015°26'0 0.0
2017-Nov-17 04:59N 28°08' W 015°26'0 0.0
2017-Nov-17 04:29N 28°08' W 015°26'0 0.0
2017-Nov-17 03:59N 28°08' W 015°26'0 0.0
2017-Nov-17 03:29N 28°08' W 015°26'0 0.0
2017-Nov-17 02:50N 28°08' W 015°26'0 0.0
2017-Nov-17 02:17N 28°08' W 015°26'0 0.0
2017-Nov-17 01:53N 28°08' W 015°26'0 0.0
2017-Nov-17 01:23N 28°08' W 015°26'0 0.0
2017-Nov-17 00:53N 28°08' W 015°26'0 0.0
2017-Nov-17 00:23N 28°08' W 015°26'0 0.0
2017-Nov-16 23:53N 28°08' W 015°26'0 0.0
2017-Nov-16 23:26N 28°08' W 015°26'0 0.0
2017-Nov-16 22:56N 28°08' W 015°26'0 0.0
2017-Nov-16 22:26N 28°08' W 015°26'0 0.0
2017-Nov-16 21:56N 28°08' W 015°26'0 0.0
2017-Nov-16 21:26N 28°08' W 015°26'0 0.0
2017-Nov-16 20:59N 28°08' W 015°26'0 0.0
2017-Nov-16 20:29N 28°08' W 015°26'0 0.0
2017-Nov-16 19:59N 28°08' W 015°26'0 0.0
2017-Nov-16 19:11N 28°08' W 015°26'0 0.0
2017-Nov-16 18:56N 28°08' W 015°26'0 0.0
2017-Nov-16 18:30N 28°08' W 015°26'0 0.0
2017-Nov-16 17:59N 28°08' W 015°26'0 0.0
2017-Nov-16 17:17N 28°08' W 015°26'0 0.0
2017-Nov-16 17:00N 28°08' W 015°26'0 0.0
2017-Nov-16 16:29N 28°08' W 015°26'0 0.0
2017-Nov-16 16:00N 28°08' W 015°26'0 0.0
2017-Nov-16 15:21N 28°08' W 015°26'0 0.0
2017-Nov-16 14:51N 28°08' W 015°26'0 0.0
2017-Nov-16 14:21N 28°08' W 015°26'0 0.0
2017-Nov-16 13:54N 28°08' W 015°26'0 0.0
2017-Nov-16 13:24N 28°08' W 015°26'0 0.0
2017-Nov-16 12:51N 28°08' W 015°26'0 0.0
2017-Nov-16 12:21N 28°08' W 015°26'0 0.0
2017-Nov-16 11:51N 28°08' W 015°26'0 0.0
2017-Nov-16 11:24N 28°08' W 015°26'0 0.0
2017-Nov-16 10:57N 28°08' W 015°26'0 0.0
2017-Nov-16 10:27N 28°08' W 015°26'0 0.0
2017-Nov-16 09:57N 28°08' W 015°26'0 0.0
2017-Nov-16 09:27N 28°08' W 015°26'0 0.0
2017-Nov-16 09:00N 28°08' W 015°26'0 0.0
2017-Nov-16 08:27N 28°08' W 015°26'0 0.0
2017-Nov-16 07:45N 28°08' W 015°26'0 0.0
2017-Nov-16 07:30N 28°08' W 015°26'0 0.0
2017-Nov-16 06:57N 28°08' W 015°26'0 0.0
2017-Nov-16 06:30N 28°08' W 015°26'0 0.0
2017-Nov-16 06:00N 28°08' W 015°26'0 0.0
2017-Nov-16 05:30N 28°08' W 015°26'0 0.0
2017-Nov-16 05:00N 28°08' W 015°26'0 0.0
2017-Nov-16 04:30N 28°08' W 015°26'0 0.0
2017-Nov-16 04:00N 28°08' W 015°26'0 0.0
2017-Nov-16 03:30N 28°08' W 015°26'0 0.0
2017-Nov-16 03:00N 28°08' W 015°26'0 0.0
2017-Nov-16 02:06N 28°08' W 015°26'0 0.0
2017-Nov-16 01:51N 28°08' W 015°26'0 0.0
2017-Nov-16 01:24N 28°08' W 015°26'0 0.0
2017-Nov-16 00:54N 28°08' W 015°26'0 0.0
2017-Nov-15 23:36N 28°08' W 015°26'0 0.0
2017-Nov-15 23:06N 28°08' W 015°26'0 0.0
2017-Nov-15 22:57N 28°08' W 015°26'0 0.0
2017-Nov-15 22:27N 28°08' W 015°26'0 0.0
2017-Nov-15 21:54N 28°08' W 015°26'0 0.0
2017-Nov-15 21:27N 28°08' W 015°26'0 0.0
2017-Nov-15 20:54N 28°08' W 015°26'0 0.0
2017-Nov-15 20:30N 28°08' W 015°26'0 0.0
2017-Nov-15 19:57N 28°08' W 015°26'0 0.0
2017-Nov-15 19:27N 28°08' W 015°26'0 0.0
2017-Nov-15 19:00N 28°08' W 015°26'0 0.0
2017-Nov-15 18:27N 28°08' W 015°26'0 0.0
2017-Nov-15 17:57N 28°08' W 015°26'0 0.0
2017-Nov-15 17:30N 28°08' W 015°26'0 0.0
2017-Nov-15 16:53N 28°08' W 015°26'0 0.0
2017-Nov-15 16:23N 28°08' W 015°26'0 0.0
2017-Nov-15 15:50N 28°08' W 015°26'0 0.0
2017-Nov-15 15:26N 28°08' W 015°26'0 0.0
2017-Nov-15 14:56N 28°08' W 015°26'0 0.0
2017-Nov-15 14:26N 28°08' W 015°26'0 0.0
2017-Nov-15 13:53N 28°08' W 015°26'0 0.0
2017-Nov-15 13:23N 28°08' W 015°26'0 0.0
2017-Nov-15 12:59N 28°08' W 015°26'0 0.0
2017-Nov-15 12:29N 28°08' W 015°26'0 0.0
2017-Nov-15 11:59N 28°08' W 015°26'0 0.0
2017-Nov-15 11:29N 28°08' W 015°26'0 0.0
2017-Nov-15 10:59N 28°08' W 015°26'0 0.0
2017-Nov-15 10:29N 28°08' W 015°26'0 0.0
2017-Nov-15 09:59N 28°08' W 015°26'0 0.0
2017-Nov-15 09:14N 28°08' W 015°26'0 0.0
2017-Nov-15 08:59N 28°08' W 015°26'0 0.0
2017-Nov-15 08:29N 28°08' W 015°26'0 0.0
2017-Nov-15 07:59N 28°08' W 015°26'0 0.0
2017-Nov-15 07:29N 28°08' W 015°26'0 0.0
2017-Nov-15 06:50N 28°08' W 015°26'0 0.0
2017-Nov-15 06:17N 28°08' W 015°26'0 0.0
2017-Nov-15 05:50N 28°08' W 015°26'0 0.0
2017-Nov-15 05:20N 28°08' W 015°26'0 0.0
2017-Nov-15 04:53N 28°08' W 015°26'0 0.0
2017-Nov-15 04:23N 28°08' W 015°26'0 0.0
2017-Nov-15 03:53N 28°08' W 015°26'0 0.0
2017-Nov-15 03:20N 28°08' W 015°26'0 0.0
2017-Nov-15 02:56N 28°08' W 015°26'0 0.0
2017-Nov-15 02:23N 28°08' W 015°26'0 0.0
2017-Nov-15 01:53N 28°08' W 015°26'0 0.0
2017-Nov-15 00:44N 28°08' W 015°26'0 0.0
2017-Nov-15 00:29N 28°08' W 015°26'0 0.0
2017-Nov-14 23:59N 28°08' W 015°26'0 0.0
2017-Nov-14 23:29N 28°08' W 015°26'0 0.0
2017-Nov-14 22:59N 28°08' W 015°26'0 0.0
2017-Nov-14 22:26N 28°08' W 015°26'0 0.0
2017-Nov-14 21:59N 28°08' W 015°26'0 0.0
2017-Nov-14 21:26N 28°08' W 015°26'0 0.0
2017-Nov-14 20:59N 28°08' W 015°26'0 0.0
2017-Nov-14 20:29N 28°08' W 015°26'0 0.0
2017-Nov-14 19:59N 28°08' W 015°26'0 0.0
2017-Nov-14 19:29N 28°08' W 015°26'0 0.0
2017-Nov-14 18:59N 28°08' W 015°26'0 0.0
2017-Nov-14 18:20N 28°08' W 015°26'0 0.0
2017-Nov-14 17:50N 28°08' W 015°26'0 0.0
2017-Nov-14 17:23N 28°08' W 015°26'0 0.0
2017-Nov-14 16:53N 28°08' W 015°26'0 0.0
2017-Nov-14 16:20N 28°08' W 015°26'0 0.0
2017-Nov-14 15:53N 28°08' W 015°26'0 0.0
2017-Nov-14 15:23N 28°08' W 015°26'0 0.0
2017-Nov-14 14:56N 28°08' W 015°26'0 0.0
2017-Nov-14 14:26N 28°08' W 015°26'0 0.0
2017-Nov-14 12:53N 28°08' W 015°26'0 0.0
2017-Nov-14 12:29N 28°08' W 015°26'0 0.0
2017-Nov-14 11:44N 28°08' W 015°26'0 0.0
2017-Nov-14 11:14N 28°08' W 015°26'0 0.0
2017-Nov-14 10:59N 28°08' W 015°26'0 0.0
2017-Nov-14 10:29N 28°08' W 015°26'0 0.0
2017-Nov-14 09:59N 28°08' W 015°26'0 0.0
2017-Nov-14 09:26N 28°08' W 015°26'0 0.0
2017-Nov-14 08:59N 28°08' W 015°26'0 0.0
2017-Nov-14 08:29N 28°08' W 015°26'0 0.0
2017-Nov-14 07:59N 28°08' W 015°26'0 0.0
2017-Nov-14 07:17N 28°08' W 015°26'0 0.0
2017-Nov-14 06:59N 28°08' W 015°26'0 0.0
2017-Nov-14 06:05N 28°08' W 015°26'0 0.0
2017-Nov-14 05:50N 28°08' W 015°26'0 0.0
2017-Nov-14 05:20N 28°08' W 015°26'0 0.0
2017-Nov-14 04:53N 28°08' W 015°26'0 0.0
2017-Nov-14 04:17N 28°08' W 015°26'0 0.0
2017-Nov-14 03:53N 28°08' W 015°26'0 0.0
2017-Nov-14 03:23N 28°08' W 015°26'0 0.0
2017-Nov-14 02:41N 28°08' W 015°26'0 0.0
2017-Nov-14 02:23N 28°08' W 015°26'0 0.0
2017-Nov-14 01:53N 28°08' W 015°26'0 0.0
2017-Nov-14 01:11N 28°08' W 015°26'0 0.0
2017-Nov-14 00:53N 28°08' W 015°26'0 0.0
2017-Nov-14 00:26N 28°08' W 015°26'0 0.0
2017-Nov-13 23:53N 28°08' W 015°26'0 0.0
2017-Nov-13 23:29N 28°08' W 015°26'0 0.0
2017-Nov-13 22:59N 28°08' W 015°26'0 0.0
2017-Nov-13 22:14N 28°08' W 015°26'0 0.0
2017-Nov-13 21:41N 28°08' W 015°26'0 0.0
2017-Nov-13 01:53N 28°08' W 015°26'0 0.0
2017-Nov-13 01:20N 28°08' W 015°26'0 0.0
2017-Nov-13 00:56N 28°08' W 015°26'0 0.0
2017-Nov-13 00:23N 28°08' W 015°26'0 0.0
2017-Nov-12 23:56N 28°08' W 015°26'0 0.0
2017-Nov-12 23:23N 28°08' W 015°26'0 0.0
2017-Nov-12 22:59N 28°08' W 015°26'0 0.0
2017-Nov-12 22:14N 28°08' W 015°26'0 0.0
2017-Nov-12 21:44N 28°08' W 015°26'0 0.0
2017-Nov-12 21:29N 28°08' W 015°26'0 0.0
2017-Nov-12 20:59N 28°08' W 015°26'0 0.0
2017-Nov-12 20:17N 28°08' W 015°26'0 0.0
2017-Nov-12 18:05N 28°08' W 015°26'0 0.1
2017-Nov-12 17:59N 28°08' W 015°26'0 0.0
2017-Nov-12 16:17N 28°08' W 015°26'0 0.0
2017-Nov-12 15:50N 28°08' W 015°26'0 0.0
2017-Nov-12 15:23N 28°08' W 015°26'0 0.0
2017-Nov-12 14:53N 28°08' W 015°26'0 0.0
2017-Nov-12 14:23N 28°08' W 015°26'0 0.0
2017-Nov-12 13:53N 28°08' W 015°26'0 0.0
2017-Nov-12 13:23N 28°08' W 015°26'0 0.0
2017-Nov-12 12:53N 28°08' W 015°26'0 0.0
2017-Nov-12 12:08N 28°08' W 015°26'0 0.0
2017-Nov-12 11:53N 28°08' W 015°26'0 0.0
2017-Nov-12 11:23N 28°08' W 015°26'0 0.0
2017-Nov-12 10:56N 28°08' W 015°26'0 0.0
2017-Nov-12 09:11N 28°08' W 015°26'0 0.0
2017-Nov-12 08:59N 28°08' W 015°26'0 0.0
2017-Nov-12 08:29N 28°08' W 015°26'0 0.0
2017-Nov-12 07:59N 28°08' W 015°26'0 0.0
2017-Nov-12 07:17N 28°08' W 015°26'0 0.0
2017-Nov-12 06:59N 28°08' W 015°26'0 0.0
2017-Nov-12 06:20N 28°08' W 015°26'0 0.0
2017-Nov-12 05:47N 28°08' W 015°26'0 0.0
2017-Nov-12 05:29N 28°08' W 015°26'0 0.0
2017-Nov-12 04:47N 28°08' W 015°26'0 0.0
2017-Nov-12 04:20N 28°08' W 015°26'0 0.0
2017-Nov-12 03:47N 28°08' W 015°26'0 0.0
2017-Nov-12 03:23N 28°08' W 015°26'0 0.0
2017-Nov-12 02:53N 28°08' W 015°26'0 0.0
2017-Nov-12 02:20N 28°08' W 015°26'0 0.0
2017-Nov-12 01:53N 28°08' W 015°26'0 0.0
2017-Nov-12 01:23N 28°08' W 015°26'0 0.0
2017-Nov-12 00:50N 28°08' W 015°26'0 0.0
2017-Nov-12 00:26N 28°08' W 015°26'0 0.0
2017-Nov-11 23:56N 28°08' W 015°26'0 0.0
2017-Nov-11 23:26N 28°08' W 015°26'0 0.0
2017-Nov-11 22:53N 28°08' W 015°26'0 0.0
2017-Nov-11 22:29N 28°08' W 015°26'0 0.0
2017-Nov-11 22:00N 28°08' W 015°26'0 0.0
2017-Nov-11 21:29N 28°08' W 015°26'0 0.0
2017-Nov-11 20:59N 28°08' W 015°26'0 0.0
2017-Nov-11 20:26N 28°08' W 015°26'0 0.0
2017-Nov-11 20:00N 28°08' W 015°26'0 0.0
2017-Nov-11 19:29N 28°08' W 015°26'0 0.0
2017-Nov-11 19:00N 28°08' W 015°26'0 0.0
2017-Nov-11 18:29N 28°08' W 015°26'0 0.0
2017-Nov-11 17:59N 28°08' W 015°26'0 0.0
2017-Nov-11 17:30N 28°08' W 015°26'0 0.0
2017-Nov-11 16:18N 28°08' W 015°26'0 0.0
2017-Nov-11 15:51N 28°08' W 015°26'0 0.0
2017-Nov-11 15:21N 28°08' W 015°26'0 0.0
2017-Nov-11 14:54N 28°08' W 015°26'0 0.0
2017-Nov-11 13:54N 28°08' W 015°26'0 0.0
2017-Nov-11 13:24N 28°08' W 015°26'0 0.0
2017-Nov-11 12:54N 28°08' W 015°26'0 0.0
2017-Nov-11 12:27N 28°08' W 015°26'0 0.0
2017-Nov-11 11:57N 28°08' W 015°26'0 0.0
2017-Nov-11 11:12N 28°08' W 015°26'0 0.0
2017-Nov-11 10:42N 28°08' W 015°26'0 0.0
2017-Nov-11 10:15N 28°08' W 015°26'0 0.0
2017-Nov-11 09:42N 28°08' W 015°26'0 0.0
2017-Nov-11 09:15N 28°08' W 015°26'0 0.0
2017-Nov-11 08:42N 28°08' W 015°26'0 0.0
2017-Nov-11 08:30N 28°08' W 015°26'0 0.0
2017-Nov-11 08:00N 28°08' W 015°26'0 0.0
2017-Nov-11 07:30N 28°08' W 015°26'0 0.0
2017-Nov-11 07:00N 28°08' W 015°26'0 0.0
2017-Nov-11 06:30N 28°08' W 015°26'0 0.0
2017-Nov-11 06:00N 28°08' W 015°26'0 0.0
2017-Nov-11 05:18N 28°08' W 015°26'0 0.0
2017-Nov-11 05:00N 28°08' W 015°26'0 0.0
2017-Nov-11 04:30N 28°08' W 015°26'0 0.0
2017-Nov-11 03:51N 28°08' W 015°26'0 0.0
2017-Nov-11 03:21N 28°08' W 015°26'0 0.0
2017-Nov-11 02:54N 28°08' W 015°26'0 0.0
2017-Nov-11 02:24N 28°08' W 015°26'0 0.0
2017-Nov-11 01:54N 28°08' W 015°26'0 0.0
2017-Nov-11 01:24N 28°08' W 015°26'0 0.0
2017-Nov-11 00:36N 28°08' W 015°26'0 0.0
2017-Nov-11 00:27N 28°08' W 015°26'0 0.0
2017-Nov-10 23:57N 28°08' W 015°26'0 0.0
2017-Nov-10 23:21N 28°08' W 015°26'0 0.0
2017-Nov-10 22:57N 28°08' W 015°26'0 0.0
2017-Nov-10 22:27N 28°08' W 015°26'0 0.0
2017-Nov-10 22:00N 28°08' W 015°26'0 0.0
2017-Nov-10 21:30N 28°08' W 015°26'0 0.0
2017-Nov-10 21:00N 28°08' W 015°26'0 0.0
2017-Nov-10 20:30N 28°08' W 015°26'0 0.0
2017-Nov-10 19:57N 28°08' W 015°26'0 0.0
2017-Nov-10 19:30N 28°08' W 015°26'0 0.0
2017-Nov-10 19:00N 28°08' W 015°26'0 0.0
2017-Nov-10 18:30N 28°08' W 015°26'0 0.0
2017-Nov-10 18:00N 28°08' W 015°26'0 0.0
2017-Nov-10 17:30N 28°08' W 015°26'0 0.0
2017-Nov-10 17:00N 28°08' W 015°26'0 0.0
2017-Nov-10 16:30N 28°08' W 015°26'0 0.0
2017-Nov-10 15:48N 28°08' W 015°26'0 0.0
2017-Nov-10 15:21N 28°08' W 015°26'0 0.0
2017-Nov-10 14:51N 28°08' W 015°26'0 0.0
2017-Nov-10 14:24N 28°08' W 015°26'0 0.0
2017-Nov-10 13:54N 28°08' W 015°26'0 0.0
2017-Nov-10 13:09N 28°08' W 015°26'0 0.0
2017-Nov-10 12:54N 28°08' W 015°26'0 0.0
2017-Nov-10 12:27N 28°08' W 015°26'0 0.0
2017-Nov-10 11:57N 28°08' W 015°26'0 0.0
2017-Nov-10 11:12N 28°08' W 015°26'0 0.0
2017-Nov-10 10:57N 28°08' W 015°26'0 0.0
2017-Nov-10 10:24N 28°08' W 015°26'0 0.0
2017-Nov-10 09:57N 28°08' W 015°26'0 0.0
2017-Nov-10 09:30N 28°08' W 015°26'0 0.0
2017-Nov-10 09:00N 28°08' W 015°26'0 0.0
2017-Nov-10 08:30N 28°08' W 015°26'0 0.0
2017-Nov-10 08:00N 28°08' W 015°26'0 0.0
2017-Nov-10 07:30N 28°08' W 015°26'0 0.0
2017-Nov-10 06:57N 28°08' W 015°26'0 0.0
2017-Nov-10 06:30N 28°08' W 015°26'0 0.0
2017-Nov-10 06:00N 28°08' W 015°26'0 0.0
2017-Nov-10 05:18N 28°08' W 015°26'0 0.0
2017-Nov-10 04:48N 28°08' W 015°26'0 0.0
2017-Nov-10 04:21N 28°08' W 015°26'0 0.0
2017-Nov-10 03:36N 28°08' W 015°26'0 0.0
2017-Nov-10 03:21N 28°08' W 015°26'0 0.0
2017-Nov-10 02:48N 28°08' W 015°26'0 0.0
2017-Nov-10 02:21N 28°08' W 015°26'0 0.0
2017-Nov-10 01:54N 28°08' W 015°26'0 0.0
2017-Nov-10 01:24N 28°08' W 015°26'0 0.0
2017-Nov-10 00:51N 28°08' W 015°26'0 0.0
2017-Nov-10 00:24N 28°08' W 015°26'0 0.0
2017-Nov-09 23:54N 28°08' W 015°26'0 0.0
2017-Nov-09 23:23N 28°08' W 015°26'0 0.0
2017-Nov-09 22:53N 28°08' W 015°26'0 0.0
2017-Nov-09 22:05N 28°08' W 015°26'0 0.0
2017-Nov-09 21:56N 28°08' W 015°26'0 0.0
2017-Nov-09 21:26N 28°08' W 015°26'0 0.0
2017-Nov-09 20:50N 28°08' W 015°26'0 0.0
2017-Nov-09 20:26N 28°08' W 015°26'0 0.0
2017-Nov-09 19:56N 28°08' W 015°26'0 0.0
2017-Nov-09 19:26N 28°08' W 015°26'0 0.0
2017-Nov-09 18:59N 28°08' W 015°26'0 0.0
2017-Nov-09 18:26N 28°08' W 015°26'0 0.0
2017-Nov-09 17:59N 28°08' W 015°26'0 0.0
2017-Nov-09 17:29N 28°08' W 015°26'0 0.0
2017-Nov-09 16:59N 28°08' W 015°26'0 0.0
2017-Nov-09 16:29N 28°08' W 015°26'0 0.0
2017-Nov-09 15:59N 28°08' W 015°26'0 0.0
2017-Nov-09 15:29N 28°08' W 015°26'0 0.0
2017-Nov-09 14:59N 28°08' W 015°26'0 0.0
2017-Nov-09 14:17N 28°08' W 015°26'0 0.0
2017-Nov-09 13:59N 28°08' W 015°26'0 0.0
2017-Nov-09 13:29N 28°08' W 015°26'0 0.0
2017-Nov-09 12:50N 28°08' W 015°26'0 0.0
2017-Nov-09 12:17N 28°08' W 015°26'0 0.0
2017-Nov-09 11:50N 28°08' W 015°26'0 0.0
2017-Nov-09 11:20N 28°08' W 015°26'0 0.0
2017-Nov-09 10:50N 28°08' W 015°26'0 0.0
2017-Nov-09 10:23N 28°08' W 015°26'0 0.0
2017-Nov-09 09:53N 28°08' W 015°26'  

Dump ship's entire track history